Sobreda — CSRF — position and weather

sailwx.info

Track history (hours):
 
Tides and Currents Weather Stations Pressure Air Temp Water Temp Dewpoint Dewpoint Depression Visibility Wind Speed Wind Dir Waves Ship Positions

Sobreda

Last reported at 2018-Jun-18 05:39 UTC. Time now 2018-Jun-21 22:07 UTC.
Position N 38°30' W 008°50'.

Length 30 m.

Type: Tug. MMSI: 263601880.

Date/timePositionNaut miles runAvg speedWind from/ knotsBaromVisibWave heightAir tempDewpointWater temp
2018-Jun-18 05:39N 38°30' W 008°50'2 8.9
2018-Jun-18 05:27N 38°28' W 008°49'1 2.5
2018-Jun-18 04:58N 38°28' W 008°47'1 1.9
2018-Jun-18 04:30N 38°28' W 008°48'3 5.0
2018-Jun-18 03:57N 38°28' W 008°51'3 0.1
2018-Jun-17 04:31N 38°31' W 008°53'0 1.9
2018-Jun-17 04:26N 38°31' W 008°53'  
2018-Jun-14 23:17N 38°31' W 008°53'  
2018-Jun-12 13:42N 38°29' W 008°56'212.4
2018-Jun-12 13:30N 38°27' W 008°58'3 6.7
2018-Jun-12 13:00N 38°24' W 008°59'  
Track history (hours):
 
Tides and Currents Weather Stations Pressure Air Temp Water Temp Dewpoint Dewpoint Depression Visibility Wind Speed Wind Dir Waves Ship Positions

Sobreda

Last reported at 2018-Jun-18 05:39 UTC. Time now 2018-Jun-21 22:07 UTC.
Position N 38°30' W 008°50'.

Length 30 m.

Type: Tug. MMSI: 263601880.

Date/timePositionNaut miles runAvg speedWind from/ knotsBaromVisibWave heightAir tempDewpointWater temp
2018-Jun-18 05:39N 38°30' W 008°50'2 8.9
2018-Jun-18 05:27N 38°28' W 008°49'1 2.5
2018-Jun-18 04:58N 38°28' W 008°47'1 1.9
2018-Jun-18 04:30N 38°28' W 008°48'3 5.0
2018-Jun-18 03:57N 38°28' W 008°51'3 0.1
2018-Jun-17 04:31N 38°31' W 008°53'0 1.9
2018-Jun-17 04:26N 38°31' W 008°53'  
2018-Jun-14 23:17N 38°31' W 008°53'  
2018-Jun-12 13:42N 38°29' W 008°56'212.4
2018-Jun-12 13:30N 38°27' W 008°58'3 6.7
2018-Jun-12 13:00N 38°24' W 008°59'  

Dump ship's entire track history